Time,TemperatureF,DewpointF,PressureIn,WindDirection,WindDirectionDegrees,WindSpeedMPH,WindSpeedGustMPH,Humidity,HourlyPrecipIn,Conditions,Clouds,dailyrainin,SolarRadiationWatts/m^2,SoftwareType,DateUTC
2013-07-18 00:01:00,54.0,49.0,-100.00,ENE,65,2.0,3.0,85,-99.99,,,0.00,0.000000,,2013-07-18 07:01:00,
2013-07-18 00:11:00,54.0,49.0,-100.00,ENE,65,2.0,3.0,85,-99.99,,,0.00,0.000000,,2013-07-18 07:11:00,
2013-07-18 03:42:00,48.0,46.0,-100.00,ENE,64,2.0,3.0,92,-99.99,,,0.00,0.000000,,2013-07-18 10:42:00,
2013-07-18 03:52:00,48.0,46.0,-100.00,ENE,64,2.0,3.0,92,-99.99,,,0.00,0.000000,,2013-07-18 10:52:00,
2013-07-18 04:01:00,48.0,46.0,-100.00,ENE,64,2.0,3.0,92,-99.99,,,0.00,0.000000,,2013-07-18 11:01:00,
2013-07-18 04:11:00,48.0,46.0,-100.00,ENE,64,2.0,3.0,92,-99.99,,,0.00,0.000000,,2013-07-18 11:11:00,
2013-07-18 04:43:00,48.0,47.0,-100.00,NE,56,2.0,4.0,95,-99.99,,,0.00,0.000000,,2013-07-18 11:43:00,
2013-07-18 04:52:00,48.0,47.0,-100.00,NE,56,2.0,4.0,95,-99.99,,,0.00,0.000000,,2013-07-18 11:52:00,
2013-07-18 05:01:00,48.0,47.0,-100.00,NE,56,2.0,4.0,95,-99.99,,,0.00,0.000000,,2013-07-18 12:01:00,
2013-07-18 05:11:00,48.0,47.0,-100.00,NE,56,2.0,4.0,95,-99.99,,,0.00,0.000000,,2013-07-18 12:11:00,
2013-07-18 05:42:00,54.0,53.0,-100.00,NE,42,5.0,11.0,95,-99.99,,,0.00,0.000000,,2013-07-18 12:42:00,
2013-07-18 05:52:00,54.0,53.0,-100.00,NE,42,5.0,11.0,95,-99.99,,,0.00,0.000000,,2013-07-18 12:52:00,
2013-07-18 06:01:00,54.0,53.0,-100.00,NE,42,5.0,11.0,95,-99.99,,,0.00,0.000000,,2013-07-18 13:01:00,
2013-07-18 06:11:00,54.0,53.0,-100.00,NE,42,5.0,11.0,95,-99.99,,,0.00,0.000000,,2013-07-18 13:11:00,
2013-07-18 06:43:00,52.0,52.0,-100.00,North,1,3.0,5.0,97,-99.99,,,0.00,10.920000,,2013-07-18 13:43:00,
2013-07-18 06:53:00,52.0,52.0,-100.00,North,1,3.0,5.0,97,-99.99,,,0.00,10.920000,,2013-07-18 13:53:00,
2013-07-18 07:02:00,52.0,52.0,-100.00,North,1,3.0,5.0,97,-99.99,,,0.00,10.920000,,2013-07-18 14:02:00,
2013-07-18 07:11:00,52.0,52.0,-100.00,North,1,3.0,5.0,97,-99.99,,,0.00,10.920000,,2013-07-18 14:11:00,
2013-07-18 07:43:00,53.0,52.0,-100.00,NNE,19,2.0,6.0,98,-99.99,,,0.00,74.730003,,2013-07-18 14:43:00,
2013-07-18 07:53:00,53.0,52.0,-100.00,NNE,19,2.0,6.0,98,-99.99,,,0.00,74.730003,,2013-07-18 14:53:00,
2013-07-18 08:01:00,53.0,52.0,-100.00,NNE,19,2.0,6.0,98,-99.99,,,0.00,74.730003,,2013-07-18 15:01:00,
2013-07-18 08:11:00,53.0,52.0,-100.00,NNE,19,2.0,6.0,98,-99.99,,,0.00,74.730003,,2013-07-18 15:11:00,
2013-07-18 08:42:00,56.0,53.0,-100.00,NNE,25,4.0,9.0,91,-99.99,,,0.00,336.220001,,2013-07-18 15:42:00,
2013-07-18 08:53:00,56.0,53.0,-100.00,NNE,25,4.0,9.0,91,-99.99,,,0.00,336.220001,,2013-07-18 15:53:00,
2013-07-18 09:01:00,56.0,53.0,-100.00,NNE,25,4.0,9.0,91,-99.99,,,0.00,336.220001,,2013-07-18 16:01:00,
2013-07-18 09:11:00,56.0,53.0,-100.00,NNE,25,4.0,9.0,91,-99.99,,,0.00,336.220001,,2013-07-18 16:11:00,
2013-07-18 09:42:00,57.0,53.0,-100.00,North,353,6.0,12.0,86,-99.99,,,0.00,272.070007,,2013-07-18 16:42:00,
2013-07-18 09:52:00,57.0,53.0,-100.00,North,353,6.0,12.0,86,-99.99,,,0.00,272.070007,,2013-07-18 16:52:00,
2013-07-18 10:02:00,57.0,53.0,-100.00,North,353,6.0,12.0,86,-99.99,,,0.00,272.070007,,2013-07-18 17:02:00,
2013-07-18 10:11:00,57.0,53.0,-100.00,North,353,6.0,12.0,86,-99.99,,,0.00,272.070007,,2013-07-18 17:11:00,
2013-07-18 10:43:00,60.0,54.0,-100.00,North,351,8.0,15.0,82,-99.99,,,0.00,690.700012,,2013-07-18 17:43:00,
2013-07-18 10:52:00,60.0,54.0,-100.00,North,351,8.0,15.0,82,-99.99,,,0.00,690.700012,,2013-07-18 17:52:00,
2013-07-18 11:01:00,60.0,54.0,-100.00,North,351,8.0,15.0,82,-99.99,,,0.00,690.700012,,2013-07-18 18:01:00,
2013-07-18 11:11:00,60.0,54.0,-100.00,North,351,8.0,15.0,82,-99.99,,,0.00,690.700012,,2013-07-18 18:11:00,
2013-07-18 11:43:00,60.0,54.0,-100.00,NNW,342,9.0,17.0,80,-99.99,,,0.00,824.000000,,2013-07-18 18:43:00,
2013-07-18 11:52:00,60.0,54.0,-100.00,NNW,342,9.0,17.0,80,-99.99,,,0.00,824.000000,,2013-07-18 18:52:00,
2013-07-18 12:01:00,60.0,54.0,-100.00,NNW,342,9.0,17.0,80,-99.99,,,0.00,824.000000,,2013-07-18 19:01:00,
2013-07-18 12:11:00,60.0,54.0,-100.00,NNW,342,9.0,17.0,80,-99.99,,,0.00,824.000000,,2013-07-18 19:11:00,
2013-07-18 12:53:00,60.0,54.0,-100.00,NNW,347,11.0,22.0,79,-99.99,,,0.00,913.489990,,2013-07-18 19:53:00,
2013-07-18 13:01:00,60.0,54.0,-100.00,NNW,347,11.0,22.0,79,-99.99,,,0.00,913.489990,,2013-07-18 20:01:00,
2013-07-18 13:11:00,60.0,54.0,-100.00,NNW,347,11.0,22.0,79,-99.99,,,0.00,913.489990,,2013-07-18 20:11:00,
2013-07-18 13:43:00,60.0,53.0,-100.00,NNW,342,12.0,22.0,76,-99.99,,,0.00,953.000000,,2013-07-18 20:43:00,
2013-07-18 13:52:00,60.0,53.0,-100.00,NNW,342,12.0,22.0,76,-99.99,,,0.00,953.000000,,2013-07-18 20:52:00,
2013-07-18 14:01:00,60.0,53.0,-100.00,NNW,342,12.0,22.0,76,-99.99,,,0.00,953.000000,,2013-07-18 21:01:00,
2013-07-18 14:11:00,60.0,53.0,-100.00,NNW,342,12.0,22.0,76,-99.99,,,0.00,953.000000,,2013-07-18 21:11:00,
2013-07-18 14:43:00,61.0,52.0,-100.00,North,355,12.0,26.0,73,-99.99,,,0.00,939.059998,,2013-07-18 21:43:00,
2013-07-18 14:52:00,61.0,52.0,-100.00,North,355,12.0,26.0,73,-99.99,,,0.00,939.059998,,2013-07-18 21:52:00,
2013-07-18 15:01:00,61.0,52.0,-100.00,North,355,12.0,26.0,73,-99.99,,,0.00,939.059998,,2013-07-18 22:01:00,
2013-07-18 15:11:00,61.0,52.0,-100.00,North,355,12.0,26.0,73,-99.99,,,0.00,939.059998,,2013-07-18 22:11:00,
2013-07-18 15:43:00,62.0,52.0,-100.00,North,350,11.0,25.0,71,-99.99,,,0.00,879.789978,,2013-07-18 22:43:00,
2013-07-18 15:53:00,62.0,52.0,-100.00,North,350,11.0,25.0,71,-99.99,,,0.00,879.789978,,2013-07-18 22:53:00,
2013-07-18 16:01:00,62.0,52.0,-100.00,North,350,11.0,25.0,71,-99.99,,,0.00,879.789978,,2013-07-18 23:01:00,
2013-07-18 16:11:00,62.0,52.0,-100.00,North,350,11.0,25.0,71,-99.99,,,0.00,879.789978,,2013-07-18 23:11:00,
2013-07-18 16:42:00,62.0,52.0,-100.00,North,355,10.0,21.0,71,-99.99,,,0.00,770.190002,,2013-07-18 23:42:00,
2013-07-18 16:52:00,62.0,52.0,-100.00,North,355,10.0,21.0,71,-99.99,,,0.00,770.190002,,2013-07-18 23:52:00,
2013-07-18 17:01:00,62.0,52.0,-100.00,North,355,10.0,21.0,71,-99.99,,,0.00,770.190002,,2013-07-19 00:01:00,
2013-07-18 17:11:00,62.0,52.0,-100.00,North,355,10.0,21.0,71,-99.99,,,0.00,770.190002,,2013-07-19 00:11:00,
2013-07-18 17:43:00,61.0,52.0,-100.00,North,356,9.0,20.0,71,-99.99,,,0.00,620.960022,,2013-07-19 00:43:00,
2013-07-18 17:52:00,61.0,52.0,-100.00,North,356,9.0,20.0,71,-99.99,,,0.00,620.960022,,2013-07-19 00:52:00,
2013-07-18 18:01:00,61.0,52.0,-100.00,North,356,9.0,20.0,71,-99.99,,,0.00,620.960022,,2013-07-19 01:01:00,
2013-07-18 18:11:00,61.0,52.0,-100.00,North,356,9.0,20.0,71,-99.99,,,0.00,620.960022,,2013-07-19 01:11:00,
2013-07-18 18:42:00,60.0,52.0,-100.00,North,356,9.0,20.0,74,-99.99,,,0.00,443.730011,,2013-07-19 01:42:00,
2013-07-18 18:52:00,60.0,52.0,-100.00,North,356,9.0,20.0,74,-99.99,,,0.00,443.730011,,2013-07-19 01:52:00,
2013-07-18 19:01:00,60.0,52.0,-100.00,North,356,9.0,20.0,74,-99.99,,,0.00,443.730011,,2013-07-19 02:01:00,
2013-07-18 19:11:00,60.0,52.0,-100.00,North,356,9.0,20.0,74,-99.99,,,0.00,443.730011,,2013-07-19 02:11:00,
2013-07-18 19:42:00,59.0,52.0,-100.00,North,353,8.0,18.0,77,-99.99,,,0.00,259.170013,,2013-07-19 02:42:00,
2013-07-18 19:52:00,59.0,52.0,-100.00,North,353,8.0,18.0,77,-99.99,,,0.00,259.170013,,2013-07-19 02:52:00,
2013-07-18 20:01:00,59.0,52.0,-100.00,North,353,8.0,18.0,77,-99.99,,,0.00,259.170013,,2013-07-19 03:01:00,
2013-07-18 20:11:00,59.0,52.0,-100.00,North,353,8.0,18.0,77,-99.99,,,0.00,259.170013,,2013-07-19 03:11:00,
2013-07-18 20:42:00,58.0,52.0,-100.00,North,4,6.0,13.0,81,-99.99,,,0.00,73.800003,,2013-07-19 03:42:00,
2013-07-18 20:52:00,58.0,52.0,-100.00,North,4,6.0,13.0,81,-99.99,,,0.00,73.800003,,2013-07-19 03:52:00,
2013-07-18 21:02:00,58.0,52.0,-100.00,North,4,6.0,13.0,81,-99.99,,,0.00,73.800003,,2013-07-19 04:02:00,
2013-07-18 21:11:00,58.0,52.0,-100.00,North,4,6.0,13.0,81,-99.99,,,0.00,73.800003,,2013-07-19 04:11:00,
2013-07-18 21:43:00,57.0,52.0,-100.00,NNE,30,5.0,14.0,83,-99.99,,,0.00,1.050000,,2013-07-19 04:43:00,
2013-07-18 21:52:00,57.0,52.0,-100.00,NNE,30,5.0,14.0,83,-99.99,,,0.00,1.050000,,2013-07-19 04:52:00,
2013-07-18 22:02:00,57.0,52.0,-100.00,NNE,30,5.0,14.0,83,-99.99,,,0.00,1.050000,,2013-07-19 05:02:00,
2013-07-18 22:11:00,57.0,52.0,-100.00,NNE,30,5.0,14.0,83,-99.99,,,0.00,1.050000,,2013-07-19 05:11:00,
2013-07-18 22:43:00,57.0,53.0,-100.00,NNE,29,6.0,12.0,85,-99.99,,,0.00,0.000000,,2013-07-19 05:43:00,
2013-07-18 22:53:00,57.0,53.0,-100.00,NNE,29,6.0,12.0,85,-99.99,,,0.00,0.000000,,2013-07-19 05:53:00,
2013-07-18 23:01:00,57.0,53.0,-100.00,NNE,29,6.0,12.0,85,-99.99,,,0.00,0.000000,,2013-07-19 06:01:00,
2013-07-18 23:11:00,57.0,53.0,-100.00,NNE,29,6.0,12.0,85,-99.99,,,0.00,0.000000,,2013-07-19 06:11:00,
2013-07-18 23:43:00,57.0,53.0,-100.00,NNE,16,5.0,10.0,87,-99.99,,,0.00,0.000000,,2013-07-19 06:43:00,
2013-07-18 23:52:00,57.0,53.0,-100.00,NNE,16,5.0,10.0,87,-99.99,,,0.00,0.000000,,2013-07-19 06:52:00,